< < Back
Terminal Aerodrome Forecast


Current Version              Previous Versions:   1  2  3  4  5  6  7  8  9  

Terminal Aerodrome Forecast

950
FTUS42 KJAX 242300
TAFJAX
TAF
KJAX 242329Z 2500/2524 00000KT P6SM FEW200
     FM251300 34005KT P6SM SKC
     FM251800 01008KT P6SM SKC=



Latest METAR

093
SAUS80 KWBC 251200
MTRJAX
METAR KJAX 251156Z 00000KT 10SM CLR 09/09 A3000 RMK AO2 SLP158 T00890089
10106 20083 51006 $


USA.gov is the U.S. government's official web portal to all federal, state and local government web resources and services.